Time;durP1;ratioP1;P1;durP2;ratioP2;P2;SDS_P1;SDS_P2;PMS_P1;PMS_P2;Temp;Humidity;BMP_temperature;BMP_pressure;BME280_temperature;BME280_humidity;BME280_pressure;Samples;Min_cycle;Max_cycle;Signal;HPM_P1;HPM_P2
2023/03/15 00:00:41;;;;;;;10.57;2.23;;;4.50;1.00;;;;;;5015647;28;20476;-80
2023/03/15 00:03:10;;;;;;;5.23;2.20;;;4.30;1.00;;;;;;5015826;28;20473;-76
2023/03/15 00:05:41;;;;;;;6.93;2.00;;;4.40;42.70;;;;;;5025516;28;20468;-79
2023/03/15 00:08:08;;;;;;;6.83;2.30;;;4.40;55.80;;;;;;5015443;28;20853;-78
2023/03/15 00:10:35;;;;;;;11.80;2.53;;;4.50;2.40;;;;;;5012490;28;20475;-78
2023/03/15 00:13:01;;;;;;;11.23;2.40;;;4.50;52.10;;;;;;5013569;28;20460;-79
2023/03/15 00:15:28;;;;;;;7.27;2.90;;;4.40;99.90;;;;;;5013467;28;20457;-80
2023/03/15 00:17:55;;;;;;;7.07;2.57;;;4.30;99.90;;;;;;5012503;28;20504;-79
2023/03/15 00:20:23;;;;;;;10.50;3.13;;;4.30;99.90;;;;;;5012894;28;20461;-78
2023/03/15 00:22:50;;;;;;;8.90;2.07;;;4.30;1.00;;;;;;5012836;28;20467;-80
2023/03/15 00:25:17;;;;;;;9.43;2.67;;;4.30;55.70;;;;;;5012898;28;20492;-79
2023/03/15 00:27:44;;;;;;;8.20;2.80;;;4.30;99.90;;;;;;5013263;28;20457;-78
2023/03/15 00:30:11;;;;;;;7.90;3.30;;;4.40;1.00;;;;;;5012635;28;20496;-77
2023/03/15 00:32:38;;;;;;;12.93;4.07;;;4.40;1.00;;;;;;5012333;28;20549;-80
2023/03/15 00:35:06;;;;;;;9.00;2.60;;;4.40;11.20;;;;;;5012670;28;20460;-79
2023/03/15 00:37:34;;;;;;;12.07;3.23;;;4.40;30.00;;;;;;5009675;28;20451;-78
2023/03/15 00:40:01;;;;;;;11.87;3.00;;;4.40;1.30;;;;;;4993048;28;20462;-79
2023/03/15 00:42:28;;;;;;;10.13;3.70;;;4.40;98.10;;;;;;5014792;28;20452;-79
2023/03/15 00:44:55;;;;;;;9.07;3.10;;;4.50;99.90;;;;;;5016604;28;20468;-80
2023/03/15 00:47:22;;;;;;;7.10;3.37;;;4.50;99.90;;;;;;5016202;28;20486;-77
2023/03/15 00:49:50;;;;;;;10.00;3.67;;;4.50;99.90;;;;;;5015465;28;20476;-78
2023/03/15 00:52:17;;;;;;;10.03;4.40;;;4.50;99.90;;;;;;5015310;28;20600;-78
2023/03/15 00:54:51;;;;;;;7.90;2.70;;;4.50;99.90;;;;;;5016367;28;20455;-78
2023/03/15 00:57:19;;;;;;;9.03;4.20;;;4.60;99.90;;;;;;5018798;28;20964;-79
2023/03/15 00:59:46;;;;;;;5.70;3.40;;;4.50;1.00;;;;;;5021987;28;20459;-79
2023/03/15 01:02:13;;;;;;;6.07;2.73;;;4.40;1.00;;;;;;5018455;28;20469;-80
2023/03/15 01:04:40;;;;;;;8.47;4.27;;;4.50;1.00;;;;;;5019187;28;20460;-78
2023/03/15 01:07:07;;;;;;;9.73;3.77;;;4.40;1.00;;;;;;5018493;28;20501;-79
2023/03/15 01:09:34;;;;;;;10.20;3.33;;;4.30;1.00;;;;;;5020621;28;20458;-78
2023/03/15 01:12:03;;;;;;;9.50;3.53;;;4.20;1.00;;;;;;5017410;28;20853;-80
2023/03/15 01:14:30;;;;;;;6.30;3.73;;;4.10;1.00;;;;;;5018024;28;20455;-79
2023/03/15 01:16:57;;;;;;;8.53;3.60;;;4.00;1.00;;;;;;5017684;28;20624;-79
2023/03/15 01:19:23;;;;;;;4.63;3.60;;;3.90;25.90;;;;;;5017309;28;20453;-78
2023/03/15 01:21:50;;;;;;;8.90;4.10;;;3.90;47.70;;;;;;5029821;28;20473;-80
2023/03/15 01:24:17;;;;;;;7.30;5.10;;;4.00;40.30;;;;;;5023100;28;20526;-80
2023/03/15 01:26:44;;;;;;;8.10;4.77;;;3.90;92.30;;;;;;5017663;28;21007;-78
2023/03/15 01:29:12;;;;;;;8.87;4.40;;;3.80;99.90;;;;;;5018107;28;20430;-80
2023/03/15 01:31:39;;;;;;;5.07;4.27;;;3.80;99.90;;;;;;5017440;28;20551;-80
2023/03/15 01:34:07;;;;;;;6.20;4.30;;;3.90;99.90;;;;;;5017323;28;20446;-80
2023/03/15 01:36:34;;;;;;;7.00;4.10;;;3.90;99.90;;;;;;5017428;28;20515;-78
2023/03/15 01:39:01;;;;;;;8.73;5.10;;;4.00;99.90;;;;;;5016463;28;20424;-79
2023/03/15 01:41:28;;;;;;;7.60;4.10;;;4.00;99.90;;;;;;5014879;28;20553;-80
2023/03/15 01:43:54;;;;;;;7.00;5.23;;;3.90;99.90;;;;;;5015878;28;20443;-79
2023/03/15 01:46:25;;;;;;;7.30;4.53;;;3.90;99.90;;;;;;5016029;28;20513;-79
2023/03/15 01:48:58;;;;;;;6.10;5.47;;;3.90;99.90;;;;;;5015518;28;20462;-79
2023/03/15 01:51:32;;;;;;;7.70;3.90;;;3.90;99.90;;;;;;5014668;28;21123;-80
2023/03/15 01:54:02;;;;;;;6.97;4.37;;;3.80;99.90;;;;;;5016300;28;20443;-79
2023/03/15 01:56:32;;;;;;;5.07;3.93;;;3.70;99.90;;;;;;5018369;28;20455;-80
2023/03/15 01:59:01;;;;;;;6.73;3.90;;;3.70;99.90;;;;;;5019193;28;20458;-80
2023/03/15 02:01:30;;;;;;;5.30;3.17;;;3.70;99.90;;;;;;5018075;28;20450;-80
2023/03/15 02:04:02;;;;;;;4.57;3.33;;;3.60;99.90;;;;;;5018543;28;20524;-80
2023/03/15 02:06:33;;;;;;;8.23;3.20;;;3.60;99.90;;;;;;5019232;28;20484;-80
2023/03/15 02:09:04;;;;;;;7.27;3.90;;;3.60;99.90;;;;;;5018906;28;20458;-79
2023/03/15 02:11:30;;;;;;;4.50;2.77;;;3.70;99.90;;;;;;5017987;28;20482;-81
2023/03/15 02:13:59;;;;;;;6.73;2.43;;;3.70;99.90;;;;;;5018149;28;20462;-80
2023/03/15 02:16:27;;;;;;;5.57;2.67;;;3.80;99.90;;;;;;5018001;28;20525;-80
2023/03/15 02:18:55;;;;;;;4.03;2.70;;;3.70;99.90;;;;;;5006523;28;20447;-80
2023/03/15 02:21:42;;;;;;;3.10;2.43;;;3.70;99.90;;;;;;4997635;28;20478;-79
2023/03/15 02:24:20;;;;;;;4.40;3.37;;;3.50;99.90;;;;;;5011430;28;20426;-79
2023/03/15 02:26:53;;;;;;;4.50;3.23;;;3.50;99.90;;;;;;5016730;28;21004;-79
2023/03/15 02:29:23;;;;;;;9.97;5.70;;;3.60;99.90;;;;;;5017878;28;20442;-80
2023/03/15 02:31:51;;;;;;;24.43;10.37;;;3.70;99.90;;;;;;5016343;28;20470;-80
2023/03/15 02:34:18;;;;;;;8.00;4.70;;;3.60;99.90;;;;;;5016749;28;20465;-81
2023/03/15 02:36:45;;;;;;;8.33;4.57;;;3.70;99.90;;;;;;5015575;28;20456;-79
2023/03/15 02:39:16;;;;;;;6.93;3.87;;;3.70;99.90;;;;;;5014101;28;20428;-78
2023/03/15 02:41:47;;;;;;;6.63;4.97;;;3.80;99.90;;;;;;5015289;28;21009;-79
2023/03/15 02:44:17;;;;;;;6.70;3.90;;;3.80;99.90;;;;;;5016966;28;20540;-79
2023/03/15 02:46:47;;;;;;;7.37;4.73;;;3.80;99.90;;;;;;5015956;28;20491;-79
2023/03/15 02:49:16;;;;;;;11.43;5.70;;;3.80;99.90;;;;;;5017060;28;20450;-78
2023/03/15 02:51:43;;;;;;;9.73;6.97;;;3.80;99.90;;;;;;5016304;28;20452;-80
2023/03/15 02:54:10;;;;;;;10.70;7.07;;;3.80;99.90;;;;;;5017345;28;20488;-78
2023/03/15 02:56:37;;;;;;;10.87;5.63;;;3.80;99.90;;;;;;5017122;28;20453;-79
2023/03/15 02:59:04;;;;;;;10.30;8.67;;;3.90;99.90;;;;;;5016371;28;20839;-78
2023/03/15 03:01:31;;;;;;;8.23;5.90;;;3.90;99.90;;;;;;5015044;28;20457;-78
2023/03/15 03:03:59;;;;;;;8.20;5.77;;;3.80;99.90;;;;;;5015242;28;20420;-78
2023/03/15 03:06:26;;;;;;;7.30;5.30;;;3.80;99.90;;;;;;5014908;28;20496;-80
2023/03/15 03:08:53;;;;;;;7.73;6.30;;;3.80;99.90;;;;;;5016950;28;20454;-79
2023/03/15 03:11:19;;;;;;;9.10;6.50;;;3.80;99.90;;;;;;5015378;28;20569;-78
2023/03/15 03:13:46;;;;;;;11.20;7.57;;;3.70;99.90;;;;;;5016579;28;20486;-79
2023/03/15 03:16:13;;;;;;;17.03;7.43;;;3.80;99.90;;;;;;5015798;28;20450;-78
2023/03/15 03:18:41;;;;;;;12.90;8.17;;;3.80;99.90;;;;;;5015512;28;20432;-79
2023/03/15 03:21:09;;;;;;;9.10;6.23;;;3.90;99.90;;;;;;5015088;28;20501;-80
2023/03/15 03:23:36;;;;;;;13.00;6.73;;;4.00;99.90;;;;;;5016012;28;20456;-80
2023/03/15 03:26:15;;;;;;;10.07;7.40;;;4.00;99.90;;;;;;5016057;28;20832;-79
2023/03/15 03:28:43;;;;;;;11.27;7.80;;;4.00;99.90;;;;;;5015893;28;20986;-80
2023/03/15 03:31:17;;;;;;;8.83;6.20;;;4.00;99.90;;;;;;5014663;28;20477;-79
2023/03/15 03:33:44;;;;;;;11.50;6.33;;;4.10;99.90;;;;;;5015621;28;20454;-79
2023/03/15 03:36:12;;;;;;;7.47;6.10;;;4.10;99.90;;;;;;5015343;28;20854;-79
2023/03/15 03:38:40;;;;;;;8.13;6.50;;;4.10;99.90;;;;;;5015318;28;20867;-80
2023/03/15 03:41:07;;;;;;;8.10;6.30;;;4.20;99.90;;;;;;5014443;28;20490;-79
2023/03/15 03:43:34;;;;;;;8.97;6.03;;;4.10;99.90;;;;;;5014716;28;20816;-79
2023/03/15 03:46:00;;;;;;;11.57;7.37;;;4.10;99.90;;;;;;5014926;28;20487;-80
2023/03/15 03:48:27;;;;;;;9.40;5.90;;;4.20;99.90;;;;;;5014399;28;20462;-79
2023/03/15 03:50:54;;;;;;;8.73;6.80;;;4.00;99.90;;;;;;5013877;28;20813;-80
2023/03/15 03:53:23;;;;;;;6.97;5.60;;;3.90;99.90;;;;;;5015106;28;20454;-78
2023/03/15 03:55:49;;;;;;;10.00;6.50;;;4.00;99.90;;;;;;5012615;28;20566;-79
2023/03/15 03:58:17;;;;;;;9.97;6.60;;;3.90;99.90;;;;;;5014938;28;20445;-80
2023/03/15 04:00:43;;;;;;;7.23;6.20;;;3.90;99.90;;;;;;5013283;28;20842;-79
2023/03/15 04:03:10;;;;;;;8.03;5.97;;;3.70;99.90;;;;;;5014426;28;20506;-78
2023/03/15 04:05:37;;;;;;;7.53;5.20;;;3.70;99.90;;;;;;5014387;28;20483;-80
2023/03/15 04:08:05;;;;;;;11.63;6.60;;;3.80;99.90;;;;;;5014058;28;20468;-79
2023/03/15 04:10:33;;;;;;;8.13;5.27;;;3.80;99.90;;;;;;5011942;28;20449;-78
2023/03/15 04:13:02;;;;;;;8.40;6.33;;;3.80;99.90;;;;;;5012650;28;20454;-79
2023/03/15 04:15:30;;;;;;;11.70;6.27;;;3.80;99.90;;;;;;5014427;28;20465;-79
2023/03/15 04:17:57;;;;;;;9.70;6.13;;;3.70;99.90;;;;;;5016641;28;20465;-78
2023/03/15 04:20:25;;;;;;;11.70;6.00;;;3.80;99.90;;;;;;5016412;28;20453;-78
2023/03/15 04:22:51;;;;;;;8.60;6.10;;;3.80;99.90;;;;;;5015976;28;20460;-79
2023/03/15 04:25:20;;;;;;;6.73;5.10;;;3.80;99.90;;;;;;5018734;28;20435;-79
2023/03/15 04:27:57;;;;;;;9.63;5.30;;;3.70;99.90;;;;;;5022442;28;20919;-79
2023/03/15 04:30:25;;;;;;;7.03;5.50;;;3.70;99.90;;;;;;5020940;28;20457;-79
2023/03/15 04:32:57;;;;;;;7.30;5.10;;;3.70;99.90;;;;;;5020635;28;20628;-80
2023/03/15 04:35:25;;;;;;;6.20;3.80;;;3.70;99.90;;;;;;5020641;28;20442;-78
2023/03/15 04:37:51;;;;;;;8.40;4.93;;;3.60;99.90;;;;;;5021424;28;20935;-79
2023/03/15 04:40:18;;;;;;;6.07;4.53;;;3.60;99.90;;;;;;5020416;28;20546;-79
2023/03/15 04:42:45;;;;;;;9.33;5.20;;;3.70;99.90;;;;;;5019946;28;20457;-77
2023/03/15 04:45:14;;;;;;;8.27;5.63;;;3.70;99.90;;;;;;5019772;28;20435;-78
2023/03/15 04:47:41;;;;;;;8.13;4.40;;;3.70;99.90;;;;;;5019760;28;20494;-79
2023/03/15 04:50:09;;;;;;;4.30;3.90;;;3.70;99.90;;;;;;5019247;28;20445;-79
2023/03/15 04:52:36;;;;;;;6.40;4.47;;;3.70;99.90;;;;;;5017229;28;20504;-78
2023/03/15 04:55:02;;;;;;;5.27;3.77;;;3.70;99.90;;;;;;5015868;28;20870;-78
2023/03/15 04:57:29;;;;;;;5.70;4.03;;;3.80;99.90;;;;;;5017806;28;20454;-78
2023/03/15 04:59:56;;;;;;;5.90;3.23;;;3.80;99.90;;;;;;5018221;28;20431;-79
2023/03/15 05:02:24;;;;;;;6.10;4.03;;;3.80;99.90;;;;;;5017781;28;20444;-79
2023/03/15 05:04:51;;;;;;;4.60;3.83;;;3.80;99.90;;;;;;5018112;28;20542;-79
2023/03/15 05:07:18;;;;;;;4.50;3.60;;;3.90;99.90;;;;;;5017966;28;20535;-78
2023/03/15 05:09:45;;;;;;;7.20;4.77;;;3.80;99.90;;;;;;5017211;28;20458;-78
2023/03/15 05:12:12;;;;;;;9.83;5.37;;;3.90;99.90;;;;;;5013740;28;20473;-78
2023/03/15 05:14:39;;;;;;;9.13;5.53;;;4.00;99.90;;;;;;5017506;28;20637;-79
2023/03/15 05:17:06;;;;;;;9.40;6.43;;;4.10;99.90;;;;;;5014388;28;20452;-79
2023/03/15 05:19:35;;;;;;;9.30;7.40;;;4.10;99.90;;;;;;5017151;28;20432;-78
2023/03/15 05:22:02;;;;;;;10.13;6.50;;;4.10;98.80;;;;;;5014280;28;20477;-78
2023/03/15 05:24:29;;;;;;;9.43;6.87;;;4.10;99.90;;;;;;5016412;28;20432;-78
2023/03/15 05:26:56;;;;;;;10.17;7.60;;;4.10;99.90;;;;;;5016920;28;20485;-79
2023/03/15 05:29:23;;;;;;;9.93;6.83;;;4.00;99.90;;;;;;5018392;28;20942;-79
2023/03/15 05:31:51;;;;;;;12.60;9.37;;;4.00;99.90;;;;;;5016527;28;21005;-79
2023/03/15 05:34:18;;;;;;;14.63;9.40;;;3.90;99.90;;;;;;5016887;28;20458;-79
2023/03/15 05:36:46;;;;;;;13.47;9.00;;;3.90;99.90;;;;;;5016508;28;20956;-77
2023/03/15 05:39:15;;;;;;;16.17;10.10;;;4.00;99.90;;;;;;5017141;28;20424;-79
2023/03/15 05:41:42;;;;;;;16.77;9.67;;;3.90;99.90;;;;;;5006294;28;20524;-79
2023/03/15 05:44:09;;;;;;;16.00;10.33;;;4.00;99.90;;;;;;5013537;28;20458;-79
2023/03/15 05:46:36;;;;;;;13.73;9.67;;;4.10;99.90;;;;;;5019223;28;20459;-80
2023/03/15 05:49:03;;;;;;;22.97;12.50;;;4.10;99.90;;;;;;5017797;28;20461;-79
2023/03/15 05:51:30;;;;;;;19.37;11.70;;;4.10;99.90;;;;;;5013356;28;20979;-78
2023/03/15 05:54:01;;;;;;;20.70;12.20;;;4.20;99.90;;;;;;5016593;28;20425;-78
2023/03/15 05:56:28;;;;;;;17.00;12.03;;;4.20;99.90;;;;;;5017540;28;20468;-80
2023/03/15 05:58:54;;;;;;;16.83;11.53;;;4.30;99.90;;;;;;5017847;28;20450;-79
2023/03/15 06:01:21;;;;;;;17.50;11.77;;;4.30;92.80;;;;;;5012533;28;20997;-78
2023/03/15 06:03:48;;;;;;;21.37;13.50;;;4.20;99.90;;;;;;5017677;28;20557;-78
2023/03/15 06:06:15;;;;;;;17.63;12.77;;;4.20;94.70;;;;;;5017232;28;20533;-79
2023/03/15 06:08:41;;;;;;;18.47;12.63;;;4.20;99.90;;;;;;5018850;28;20481;-79
2023/03/15 06:11:10;;;;;;;15.97;12.07;;;4.20;99.90;;;;;;5017298;28;20846;-80
2023/03/15 06:13:36;;;;;;;18.40;12.00;;;4.30;99.90;;;;;;5022627;28;20457;-79
2023/03/15 06:16:04;;;;;;;14.73;11.73;;;4.30;99.80;;;;;;5021935;28;20458;-79
2023/03/15 06:18:31;;;;;;;14.67;10.40;;;4.30;99.90;;;;;;5016363;28;20830;-80
2023/03/15 06:20:57;;;;;;;14.27;11.13;;;4.40;79.30;;;;;;5012561;28;20485;-78
2023/03/15 06:23:24;;;;;;;17.13;13.50;;;4.40;78.50;;;;;;5021341;28;20446;-80
2023/03/15 06:25:51;;;;;;;18.20;12.47;;;4.40;78.90;;;;;;5016575;28;20429;-78
2023/03/15 06:28:19;;;;;;;19.10;13.10;;;4.30;53.00;;;;;;5015286;28;20864;-78
2023/03/15 06:30:46;;;;;;;18.93;13.53;;;4.30;81.80;;;;;;5014266;28;20557;-78
2023/03/15 06:33:12;;;;;;;18.37;12.40;;;4.30;76.60;;;;;;5015661;28;20944;-78
2023/03/15 06:35:39;;;;;;;20.47;13.23;;;4.20;77.20;;;;;;5016673;28;20493;-78
2023/03/15 06:38:06;;;;;;;21.90;13.80;;;4.30;65.30;;;;;;5016015;28;20417;-79
2023/03/15 06:40:33;;;;;;;18.80;13.30;;;4.30;59.00;;;;;;5016239;28;20905;-78
2023/03/15 06:43:04;;;;;;;17.70;12.30;;;4.30;96.60;;;;;;5018512;28;20420;-79
2023/03/15 06:45:33;;;;;;;18.10;13.03;;;4.30;93.70;;;;;;5018522;28;20462;-80
2023/03/15 06:48:00;;;;;;;20.17;14.03;;;4.40;95.00;;;;;;5019592;28;20490;-80
2023/03/15 06:50:26;;;;;;;19.80;13.40;;;4.40;83.90;;;;;;5016503;28;20541;-79
2023/03/15 06:52:53;;;;;;;18.83;13.80;;;4.40;80.50;;;;;;5014313;28;20490;-78
2023/03/15 06:55:20;;;;;;;19.53;12.97;;;4.50;93.80;;;;;;5013348;28;20926;-78
2023/03/15 06:57:47;;;;;;;23.07;14.57;;;4.40;46.80;;;;;;5014740;28;20434;-78
2023/03/15 07:00:16;;;;;;;18.37;14.60;;;4.50;66.20;;;;;;5013948;28;20456;-77
2023/03/15 07:02:44;;;;;;;35.97;21.43;;;4.50;29.30;;;;;;5013348;28;21055;-78
2023/03/15 07:05:11;;;;;;;18.80;12.63;;;4.50;42.60;;;;;;5015448;28;20545;-77
2023/03/15 07:07:38;;;;;;;16.40;11.27;;;4.60;20.30;;;;;;5013387;28;20492;-78
2023/03/15 07:10:05;;;;;;;11.90;8.10;;;4.80;25.00;;;;;;5014611;28;20458;-78
2023/03/15 07:12:32;;;;;;;13.00;7.90;;;4.90;1.00;;;;;;5013227;28;20475;-79
2023/03/15 07:14:59;;;;;;;9.07;7.07;;;5.00;1.00;;;;;;5014879;28;20470;-78
2023/03/15 07:17:26;;;;;;;11.67;6.47;;;5.00;1.00;;;;;;5014091;28;20462;-77
2023/03/15 07:19:54;;;;;;;9.27;7.00;;;5.20;1.00;;;;;;5013035;28;20968;-77
2023/03/15 07:22:21;;;;;;;11.33;7.00;;;5.40;1.00;;;;;;5012371;28;20457;-78
2023/03/15 07:24:48;;;;;;;10.30;6.90;;;5.50;1.00;;;;;;5013110;28;20456;-78
2023/03/15 07:27:15;;;;;;;13.33;7.67;;;5.60;1.00;;;;;;5012434;28;20984;-78
2023/03/15 07:29:42;;;;;;;10.73;7.60;;;5.50;1.00;;;;;;5012052;28;20452;-78
2023/03/15 07:32:09;;;;;;;13.60;7.10;;;5.50;1.00;;;;;;5007719;28;20482;-76
2023/03/15 07:34:35;;;;;;;10.77;7.60;;;5.40;99.90;;;;;;5012863;28;20515;-78
2023/03/15 07:37:04;;;;;;;12.50;7.87;;;5.30;99.90;;;;;;5012382;28;21046;-78
2023/03/15 07:39:32;;;;;;;10.50;8.50;;;5.30;99.90;;;;;;5013171;28;20471;-78
2023/03/15 07:41:59;;;;;;;11.63;7.77;;;5.30;99.90;;;;;;5011627;28;20492;-80
2023/03/15 07:44:26;;;;;;;18.87;9.10;;;5.30;99.90;;;;;;5013649;28;20460;-79
2023/03/15 07:46:54;;;;;;;11.27;7.97;;;5.30;11.00;;;;;;5013617;28;20544;-81
2023/03/15 07:49:21;;;;;;;15.60;9.83;;;5.30;1.00;;;;;;5012777;28;20485;-79
2023/03/15 07:51:48;;;;;;;13.03;8.70;;;5.40;1.00;;;;;;5013293;28;20482;-79
2023/03/15 07:54:16;;;;;;;10.60;7.50;;;5.50;1.00;;;;;;5014952;28;20898;-80
2023/03/15 07:56:43;;;;;;;14.37;8.60;;;5.70;1.00;;;;;;5017932;28;20461;-81
2023/03/15 07:59:10;;;;;;;14.20;8.53;;;5.80;1.00;;;;;;5005628;28;21186;-78
2023/03/15 08:01:37;;;;;;;15.87;8.13;;;5.70;99.90;;;;;;5011327;28;20474;-80
2023/03/15 08:04:04;;;;;;;12.67;7.43;;;5.80;99.90;;;;;;5015191;28;20449;-81
2023/03/15 08:06:31;;;;;;;12.60;9.20;;;5.90;1.00;;;;;;5009785;28;20448;-81
2023/03/15 08:09:00;;;;;;;11.90;8.70;;;6.10;1.00;;;;;;5013325;28;20476;-80
2023/03/15 08:11:28;;;;;;;10.37;7.63;;;6.00;24.80;;;;;;5002491;28;20920;-80
2023/03/15 08:13:55;;;;;;;9.40;7.10;;;6.10;24.80;;;;;;5009948;28;20457;-80
2023/03/15 08:16:22;;;;;;;11.23;8.27;;;6.50;1.00;;;;;;5003145;28;20462;-80
2023/03/15 08:18:48;;;;;;;11.33;7.43;;;6.80;1.00;;;;;;5013638;28;20444;-80
2023/03/15 08:21:15;;;;;;;13.30;8.40;;;6.90;99.90;;;;;;5011631;28;20483;-80
2023/03/15 08:23:42;;;;;;;10.30;7.23;;;6.90;99.90;;;;;;5014098;28;20903;-82
2023/03/15 08:26:09;;;;;;;14.33;8.27;;;6.80;56.40;;;;;;5012910;28;20448;-78
2023/03/15 08:28:37;;;;;;;10.10;6.73;;;6.60;99.90;;;;;;5013733;28;20486;-81
2023/03/15 08:31:07;;;;;;;12.73;6.80;;;6.70;99.90;;;;;;5008525;28;20486;-82
2023/03/15 08:33:34;;;;;;;9.80;7.33;;;6.90;99.90;;;;;;5008956;28;20457;-80
2023/03/15 08:36:01;;;;;;;10.77;7.40;;;7.10;1.00;;;;;;5009658;28;20918;-81
2023/03/15 08:38:28;;;;;;;9.47;6.67;;;7.30;1.00;;;;;;5011091;28;20459;-81
2023/03/15 08:40:56;;;;;;;8.70;6.43;;;7.20;1.00;;;;;;5007159;28;20497;-80
2023/03/15 08:43:23;;;;;;;11.57;7.53;;;7.10;1.00;;;;;;5011770;28;20460;-81
2023/03/15 08:45:52;;;;;;;9.17;6.30;;;6.90;1.00;;;;;;5008954;28;20540;-79
2023/03/15 08:48:19;;;;;;;9.53;5.10;;;6.90;99.90;;;;;;5012129;28;20583;-80
2023/03/15 08:50:46;;;;;;;10.77;6.10;;;7.40;99.90;;;;;;5012391;28;20544;-79
2023/03/15 08:53:13;;;;;;;5.83;5.07;;;7.80;99.90;;;;;;5012815;28;20456;-79
2023/03/15 08:55:40;;;;;;;13.87;6.57;;;8.30;99.90;;;;;;5012200;28;20464;-79
2023/03/15 08:58:07;;;;;;;13.90;7.40;;;8.80;52.90;;;;;;5012914;28;20831;-81
2023/03/15 09:00:34;;;;;;;9.53;6.13;;;8.60;1.00;;;;;;5011103;28;20469;-79
2023/03/15 09:03:03;;;;;;;6.57;4.90;;;8.10;1.00;;;;;;5014891;28;20467;-79
2023/03/15 09:05:30;;;;;;;14.30;5.80;;;7.70;1.00;;;;;;5016295;28;20492;-80
2023/03/15 09:07:57;;;;;;;7.17;4.70;;;7.20;1.00;;;;;;5015221;28;20452;-79
2023/03/15 09:10:24;;;;;;;10.73;6.00;;;7.20;99.90;;;;;;5014914;28;20457;-80
2023/03/15 09:12:52;;;;;;;11.83;4.80;;;8.60;61.50;;;;;;5014720;28;20459;-80
2023/03/15 09:15:20;;;;;;;7.53;4.90;;;10.00;1.00;;;;;;5015838;28;20467;-79
2023/03/15 09:17:49;;;;;;;9.40;4.90;;;10.60;1.00;;;;;;5015636;28;20826;-79
2023/03/15 09:20:20;;;;;;;10.97;4.37;;;11.50;1.00;;;;;;5013765;28;20901;-81
2023/03/15 09:22:51;;;;;;;9.60;5.23;;;12.50;1.00;;;;;;5015671;28;20819;-80
2023/03/15 09:25:18;;;;;;;7.10;4.77;;;11.30;1.00;;;;;;5015087;28;20979;-80
2023/03/15 09:27:45;;;;;;;12.47;5.70;;;10.50;1.00;;;;;;5015336;28;20464;-78
2023/03/15 09:30:13;;;;;;;7.60;5.80;;;9.80;1.00;;;;;;5013580;28;20482;-80
2023/03/15 09:32:40;;;;;;;6.67;5.00;;;9.40;1.00;;;;;;5014538;28;20463;-80
2023/03/15 09:35:10;;;;;;;12.00;6.50;;;8.90;1.00;;;;;;5015286;28;20466;-79
2023/03/15 09:37:38;;;;;;;8.30;5.50;;;9.90;1.00;;;;;;5013465;28;20465;-81
2023/03/15 09:40:07;;;;;;;7.83;5.30;;;12.00;1.00;;;;;;5007443;28;20452;-81
2023/03/15 09:42:47;;;;;;;8.73;5.50;;;12.70;1.00;;;;;;5018070;28;20504;-80
2023/03/15 09:45:23;;;;;;;8.83;5.67;;;13.50;1.00;;;;;;5016460;28;20466;-81
2023/03/15 09:47:59;;;;;;;7.77;5.77;;;12.80;1.00;;;;;;5022544;28;20457;-81
2023/03/15 09:50:29;;;;;;;7.00;5.80;;;12.70;1.00;;;;;;5026797;28;20446;-82
2023/03/15 09:53:02;;;;;;;8.97;6.00;;;12.10;1.00;;;;;;5014113;28;20505;-81
2023/03/15 09:55:29;;;;;;;6.47;4.73;;;14.40;1.00;;;;;;5014325;28;20447;-82
2023/03/15 09:57:58;;;;;;;6.60;4.83;;;16.90;1.00;;;;;;5017178;28;20534;-81
2023/03/15 10:00:30;;;;;;;8.77;5.20;;;18.10;1.00;;;;;;5016507;28;20464;-79
2023/03/15 10:03:00;;;;;;;11.80;6.20;;;17.60;1.00;;;;;;5004801;28;20446;-79
2023/03/15 10:05:40;;;;;;;7.20;5.20;;;18.40;99.90;;;;;;5014014;28;20456;-80
2023/03/15 10:08:11;;;;;;;6.77;4.10;;;19.10;99.90;;;;;;5013533;28;20448;-80
2023/03/15 10:10:45;;;;;;;8.63;3.47;;;20.90;99.90;;;;;;5012797;28;20526;-80
2023/03/15 10:13:24;;;;;;;4.90;2.67;;;21.60;99.90;;;;;;5014259;28;20456;-79
2023/03/15 10:16:02;;;;;;;6.00;2.50;;;22.20;99.90;;;;;;5008402;28;20475;-80
2023/03/15 10:18:41;;;;;;;4.70;2.60;;;22.70;99.90;;;;;;5004570;28;20477;-80
2023/03/15 10:21:16;;;;;;;5.27;2.23;;;22.80;99.90;;;;;;5002677;28;20553;-81
2023/03/15 10:23:49;;;;;;;6.10;1.73;;;23.10;99.90;;;;;;4995531;28;20441;-80
2023/03/15 10:26:21;;;;;;;5.40;2.30;;;22.90;99.90;;;;;;4994953;28;20439;-81
2023/03/15 10:28:49;;;;;;;2.97;1.70;;;23.20;99.90;;;;;;5012715;28;20846;-81
2023/03/15 10:31:20;;;;;;;5.93;2.00;;;24.90;99.90;;;;;;5007809;28;20478;-81
2023/03/15 10:33:48;;;;;;;4.20;2.20;;;22.90;99.90;;;;;;5003080;28;20453;-78
2023/03/15 10:36:17;;;;;;;5.33;2.70;;;24.00;99.90;;;;;;5015091;28;20481;-79
2023/03/15 10:38:49;;;;;;;3.60;2.83;;;24.30;99.90;;;;;;5014245;28;20457;-79
2023/03/15 10:41:29;;;;;;;7.73;3.93;;;23.20;99.90;;;;;;5012643;28;20485;-79
2023/03/15 10:43:59;;;;;;;7.13;3.50;;;20.80;99.90;;;;;;5015365;28;20449;-79
2023/03/15 10:46:26;;;;;;;6.60;3.57;;;18.40;99.90;;;;;;5014065;28;20445;-79
2023/03/15 10:48:57;;;;;;;6.23;3.47;;;16.60;99.90;;;;;;5014597;28;20978;-79
2023/03/15 10:51:26;;;;;;;6.53;3.93;;;14.60;99.90;;;;;;5013679;28;20483;-78
2023/03/15 10:53:56;;;;;;;4.10;2.50;;;15.20;99.90;;;;;;5013553;28;20473;-80
2023/03/15 10:56:26;;;;;;;5.90;2.80;;;18.90;99.90;;;;;;5013987;28;20453;-78
2023/03/15 10:58:54;;;;;;;5.73;2.23;;;21.70;99.90;;;;;;5014347;28;20486;-81
2023/03/15 11:01:26;;;;;;;5.20;2.13;;;22.60;99.90;;;;;;5012893;28;20557;-80
2023/03/15 11:04:13;;;;;;;3.87;2.10;;;24.20;99.90;;;;;;5013798;28;20478;-79
2023/03/15 11:06:43;;;;;;;9.40;2.33;;;22.40;99.90;;;;;;4994785;28;20513;-81
2023/03/15 11:09:13;;;;;;;7.67;3.30;;;20.30;99.90;;;;;;5012071;28;21020;-78
2023/03/15 11:11:56;;;;;;;6.87;2.00;;;19.30;99.90;;;;;;5014354;28;20480;-80
2023/03/15 11:14:23;;;;;;;8.30;3.80;;;20.70;99.90;;;;;;5015366;28;20457;-79
2023/03/15 11:16:51;;;;;;;7.83;2.70;;;19.60;99.90;;;;;;5015690;28;20448;-80
2023/03/15 11:19:22;;;;;;;6.97;2.20;;;17.90;99.90;;;;;;5015313;28;20535;-81
2023/03/15 11:21:51;;;;;;;7.93;2.63;;;16.40;99.90;;;;;;5014635;28;20482;-80
2023/03/15 11:24:28;;;;;;;7.40;2.30;;;15.10;99.90;;;;;;5013336;28;21049;-80
2023/03/15 11:27:00;;;;;;;6.50;2.20;;;13.50;99.90;;;;;;5014209;28;20884;-80
2023/03/15 11:29:30;;;;;;;7.23;2.53;;;13.10;99.90;;;;;;5015809;28;20484;-80
2023/03/15 11:31:59;;;;;;;4.07;2.83;;;12.50;99.90;;;;;;5020245;28;20540;-80
2023/03/15 11:34:35;;;;;;;6.67;2.97;;;11.90;99.90;;;;;;5025070;28;20444;-79
2023/03/15 11:37:05;;;;;;;7.30;3.10;;;11.40;99.90;;;;;;5016892;28;20488;-81
2023/03/15 11:39:39;;;;;;;2.87;2.13;;;10.70;99.90;;;;;;5002756;28;20894;-82
2023/03/15 11:42:11;;;;;;;10.13;2.93;;;10.30;99.90;;;;;;4998682;28;20845;-81
2023/03/15 11:44:43;;;;;;;3.07;1.87;;;10.20;99.90;;;;;;5001440;28;20466;-81
2023/03/15 11:47:16;;;;;;;8.73;2.10;;;11.90;99.90;;;;;;5014810;28;20540;-80
2023/03/15 11:49:49;;;;;;;7.27;2.00;;;16.10;99.90;;;;;;5016150;28;21031;-81
2023/03/15 11:52:17;;;;;;;5.13;2.20;;;19.50;99.90;;;;;;5015519;28;20923;-80
2023/03/15 11:54:46;;;;;;;5.60;2.40;;;20.90;99.90;;;;;;5016133;28;20463;-82
2023/03/15 11:57:36;;;;;;;8.40;2.80;;;23.30;99.90;;;;;;5017247;28;20983;-81
2023/03/15 12:00:21;;;;;;;4.73;2.37;;;23.30;99.90;;;;;;5011745;28;20461;-81
2023/03/15 12:02:50;;;;;;;6.07;3.07;;;23.70;99.90;;;;;;5009477;28;20453;-81
2023/03/15 12:05:45;;;;;;;5.00;1.73;;;22.40;99.90;;;;;;5015216;28;20446;-81
2023/03/15 12:08:23;;;;;;;6.03;3.00;;;22.40;99.90;;;;;;5014650;28;20453;-81
2023/03/15 12:10:52;;;;;;;5.13;2.20;;;23.20;99.90;;;;;;5014565;28;20485;-80
2023/03/15 12:13:25;;;;;;;4.10;1.80;;;25.30;99.90;;;;;;5011886;28;20455;-81
2023/03/15 12:15:53;;;;;;;4.83;1.83;;;26.00;99.90;;;;;;5016225;28;20472;-82
2023/03/15 12:18:42;;;;;;;6.00;1.70;;;26.70;99.90;;;;;;5015040;28;20461;-80
2023/03/15 12:21:16;;;;;;;5.67;2.23;;;26.30;99.90;;;;;;5004498;28;20472;-79
2023/03/15 12:24:00;;;;;;;3.63;1.63;;;27.10;99.90;;;;;;5014084;28;20434;-79
2023/03/15 12:26:42;;;;;;;4.33;1.87;;;27.80;99.90;;;;;;5010911;28;20458;-80
2023/03/15 12:29:16;;;;;;;3.70;1.77;;;25.60;99.90;;;;;;5013497;28;20509;-79
2023/03/15 12:31:56;;;;;;;4.57;1.70;;;21.80;99.90;;;;;;5011394;28;20469;-80
2023/03/15 12:34:37;;;;;;;4.60;2.00;;;20.00;99.90;;;;;;5009078;28;20453;-80
2023/03/15 12:37:08;;;;;;;4.47;1.63;;;18.50;99.90;;;;;;4995136;28;20438;-80
2023/03/15 12:39:44;;;;;;;3.73;1.70;;;21.10;99.90;;;;;;4997947;28;20953;-81
2023/03/15 12:42:48;;;;;;;3.50;1.50;;;21.40;99.90;;;;;;5015729;28;20489;-80
2023/03/15 12:45:38;;;;;;;5.23;1.87;;;23.30;99.90;;;;;;5016704;28;20830;-79
2023/03/15 12:48:28;;;;;;;5.17;1.40;;;24.90;99.90;;;;;;5016107;28;20445;-78
2023/03/15 12:51:03;;;;;;;5.30;2.27;;;26.30;99.90;;;;;;5003778;28;21018;-80
2023/03/15 12:53:44;;;;;;;4.37;1.97;;;25.00;99.90;;;;;;4999831;28;20999;-78
2023/03/15 12:56:53;;;;;;;2.30;1.30;;;23.30;99.90;;;;;;5006613;28;20607;-76
2023/03/15 12:59:32;;;;;;;5.60;1.93;;;20.80;99.90;;;;;;4996517;28;20450;-79
2023/03/15 13:02:02;;;;;;;3.80;1.60;;;19.80;99.90;;;;;;5004940;28;20483;-77